sensor_id;sensor_type;location;lat;lon;timestamp;pressure;altitude;pressure_sealevel;temperature;humidity
57904;BME280;43720;47.462;19.030;2024-02-15T04:54:51;101075.31;;;6.77;96.46
57904;BME280;43720;47.462;19.030;2024-02-15T04:57:57;101065.91;;;6.79;98.27
57904;BME280;43720;47.462;19.030;2024-02-15T05:00:59;101068.84;;;6.89;97.65
57904;BME280;43720;47.462;19.030;2024-02-15T05:04:02;101072.78;;;7.00;95.91
57904;BME280;43720;47.462;19.030;2024-02-15T05:07:10;101071.13;;;6.81;98.78
57904;BME280;43720;47.462;19.030;2024-02-15T05:10:13;101087.75;;;6.84;97.95
57904;BME280;43720;47.462;19.030;2024-02-15T05:13:15;101080.66;;;6.80;96.70
57904;BME280;43720;47.462;19.030;2024-02-15T05:16:18;101081.31;;;6.75;98.35
57904;BME280;43720;47.462;19.030;2024-02-15T05:19:21;101090.66;;;6.92;97.03
57904;BME280;43720;47.462;19.030;2024-02-15T05:22:25;101084.34;;;6.85;97.78
57904;BME280;43720;47.462;19.030;2024-02-15T05:25:30;101083.34;;;6.82;98.36
57904;BME280;43720;47.462;19.030;2024-02-15T05:28:35;101093.38;;;6.95;96.95
57904;BME280;43720;47.462;19.030;2024-02-15T05:31:37;101095.03;;;6.72;100.00
57904;BME280;43720;47.462;19.030;2024-02-15T05:34:43;101095.75;;;6.68;100.00
57904;BME280;43720;47.462;19.030;2024-02-15T05:37:45;101088.91;;;6.70;100.00
57904;BME280;43720;47.462;19.030;2024-02-15T05:40:48;101101.91;;;6.70;100.00
57904;BME280;43720;47.462;19.030;2024-02-15T05:43:50;101097.91;;;6.78;98.76
57904;BME280;43720;47.462;19.030;2024-02-15T05:46:55;101100.44;;;6.77;99.45
57904;BME280;43720;47.462;19.030;2024-02-15T05:49:58;101101.56;;;6.83;100.00
57904;BME280;43720;47.462;19.030;2024-02-15T05:53:00;101099.94;;;6.85;100.00
57904;BME280;43720;47.462;19.030;2024-02-15T05:56:05;101104.97;;;7.03;100.00
57904;BME280;43720;47.462;19.030;2024-02-15T05:59:08;101104.03;;;7.01;100.00
57904;BME280;43720;47.462;19.030;2024-02-15T06:02:12;101109.16;;;7.00;100.00
57904;BME280;43720;47.462;19.030;2024-02-15T06:05:15;101112.59;;;6.99;100.00
57904;BME280;43720;47.462;19.030;2024-02-15T06:08:18;101111.19;;;7.07;100.00
57904;BME280;43720;47.462;19.030;2024-02-15T06:11:22;101120.72;;;7.06;100.00
57904;BME280;43720;47.462;19.030;2024-02-15T06:14:24;101119.97;;;7.09;100.00
57904;BME280;43720;47.462;19.030;2024-02-15T06:17:27;101122.25;;;7.01;100.00
57904;BME280;43720;47.462;19.030;2024-02-15T06:20:29;101129.16;;;7.01;100.00
57904;BME280;43720;47.462;19.030;2024-02-15T06:23:33;101127.63;;;7.06;100.00
57904;BME280;43720;47.462;19.030;2024-02-15T06:26:36;101139.66;;;7.04;100.00
57904;BME280;43720;47.462;19.030;2024-02-15T06:29:38;101140.09;;;7.15;100.00
57904;BME280;43720;47.462;19.030;2024-02-15T06:32:59;101142.44;;;7.08;100.00
57904;BME280;43720;47.462;19.030;2024-02-15T06:36:20;101137.88;;;7.03;100.00
57904;BME280;43720;47.462;19.030;2024-02-15T06:39:41;101139.97;;;7.11;100.00
57904;BME280;43720;47.462;19.030;2024-02-15T06:43:00;101140.28;;;7.19;100.00
57904;BME280;43720;47.462;19.030;2024-02-15T06:46:06;101131.84;;;7.25;100.00
57904;BME280;43720;47.462;19.030;2024-02-15T06:49:08;101149.09;;;7.44;100.00
57904;BME280;43720;47.462;19.030;2024-02-15T06:52:11;101144.28;;;7.32;100.00
57904;BME280;43720;47.462;19.030;2024-02-15T06:55:15;101152.13;;;7.33;100.00
57904;BME280;43720;47.462;19.030;2024-02-15T06:58:17;101152.84;;;7.29;100.00
57904;BME280;43720;47.462;19.030;2024-02-15T07:01:20;101148.56;;;7.09;100.00
57904;BME280;43720;47.462;19.030;2024-02-15T07:04:22;101155.69;;;7.15;100.00
57904;BME280;43720;47.462;19.030;2024-02-15T07:07:27;101155.34;;;7.28;100.00
57904;BME280;43720;47.462;19.030;2024-02-15T07:10:30;101152.25;;;7.37;100.00
57904;BME280;43720;47.462;19.030;2024-02-15T07:13:32;101164.44;;;7.38;100.00
57904;BME280;43720;47.462;19.030;2024-02-15T07:16:35;101156.53;;;7.57;100.00
57904;BME280;43720;47.462;19.030;2024-02-15T07:19:43;101159.19;;;7.58;100.00
57904;BME280;43720;47.462;19.030;2024-02-15T07:22:47;101157.53;;;7.60;100.00
57904;BME280;43720;47.462;19.030;2024-02-15T07:25:49;101168.81;;;7.61;99.38
57904;BME280;43720;47.462;19.030;2024-02-15T07:28:56;101173.41;;;7.67;98.31
57904;BME280;43720;47.462;19.030;2024-02-15T07:32:02;101171.44;;;7.83;98.31
57904;BME280;43720;47.462;19.030;2024-02-15T07:35:08;101170.53;;;8.05;97.59
57904;BME280;43720;47.462;19.030;2024-02-15T07:38:11;101171.31;;;8.03;96.58
57904;BME280;43720;47.462;19.030;2024-02-15T07:41:17;101173.31;;;8.10;94.66
57904;BME280;43720;47.462;19.030;2024-02-15T07:44:22;101165.63;;;7.91;96.62
57904;BME280;43720;47.462;19.030;2024-02-15T07:47:24;101163.19;;;7.95;96.40
57904;BME280;43720;47.462;19.030;2024-02-15T07:50:27;101163.31;;;7.98;97.52
57904;BME280;43720;47.462;19.030;2024-02-15T07:53:29;101156.41;;;7.99;96.33
57904;BME280;43720;47.462;19.030;2024-02-15T07:56:31;101163.09;;;8.16;92.69
57904;BME280;43720;47.462;19.030;2024-02-15T07:59:33;101157.03;;;8.40;90.00
57904;BME280;43720;47.462;19.030;2024-02-15T08:02:38;101159.63;;;8.40;89.81
57904;BME280;43720;47.462;19.030;2024-02-15T08:05:45;101158.84;;;8.41;90.21
57904;BME280;43720;47.462;19.030;2024-02-15T08:08:48;101164.41;;;8.51;90.37
57904;BME280;43720;47.462;19.030;2024-02-15T08:11:51;101159.41;;;8.57;89.88
57904;BME280;43720;47.462;19.030;2024-02-15T08:14:53;101168.19;;;8.60;90.23
57904;BME280;43720;47.462;19.030;2024-02-15T08:17:56;101160.91;;;8.51;90.15
57904;BME280;43720;47.462;19.030;2024-02-15T08:20:58;101153.91;;;8.48;90.14
57904;BME280;43720;47.462;19.030;2024-02-15T08:24:02;101155.81;;;8.54;90.06
57904;BME280;43720;47.462;19.030;2024-02-15T08:27:08;101164.91;;;8.65;90.02
57904;BME280;43720;47.462;19.030;2024-02-15T08:30:17;101164.41;;;8.75;87.88
57904;BME280;43720;47.462;19.030;2024-02-15T08:33:27;101166.06;;;8.99;87.58
57904;BME280;43720;47.462;19.030;2024-02-15T08:36:31;101163.91;;;8.87;87.28
57904;BME280;43720;47.462;19.030;2024-02-15T08:39:38;101157.88;;;8.88;89.12
57904;BME280;43720;47.462;19.030;2024-02-15T08:42:41;101163.22;;;8.93;88.26
57904;BME280;43720;47.462;19.030;2024-02-15T08:45:43;101154.75;;;8.98;88.43
57904;BME280;43720;47.462;19.030;2024-02-15T08:48:46;101149.97;;;9.12;87.47
57904;BME280;43720;47.462;19.030;2024-02-15T08:51:50;101150.66;;;9.34;86.96
57904;BME280;43720;47.462;19.030;2024-02-15T08:54:53;101151.16;;;9.49;85.82
57904;BME280;43720;47.462;19.030;2024-02-15T08:57:56;101162.03;;;9.36;85.80
57904;BME280;43720;47.462;19.030;2024-02-15T09:00:58;101167.09;;;9.31;86.36
57904;BME280;43720;47.462;19.030;2024-02-15T09:04:02;101172.09;;;9.25;87.09
57904;BME280;43720;47.462;19.030;2024-02-15T09:07:07;101178.00;;;9.45;87.01
57904;BME280;43720;47.462;19.030;2024-02-15T09:10:17;101168.41;;;9.72;85.53
57904;BME280;43720;47.462;19.030;2024-02-15T09:13:21;101162.69;;;9.86;83.50
57904;BME280;43720;47.462;19.030;2024-02-15T09:16:24;101159.34;;;9.90;83.02
57904;BME280;43720;47.462;19.030;2024-02-15T09:19:30;101168.56;;;10.07;82.23
57904;BME280;43720;47.462;19.030;2024-02-15T09:22:32;101173.81;;;10.07;80.82
57904;BME280;43720;47.462;19.030;2024-02-15T09:25:39;101157.84;;;9.98;80.28
57904;BME280;43720;47.462;19.030;2024-02-15T09:28:42;101166.63;;;10.00;80.38
57904;BME280;43720;47.462;19.030;2024-02-15T09:31:46;101163.19;;;10.02;79.68
57904;BME280;43720;47.462;19.030;2024-02-15T09:34:51;101160.59;;;10.33;79.02
57904;BME280;43720;47.462;19.030;2024-02-15T09:37:55;101164.19;;;10.36;78.44
57904;BME280;43720;47.462;19.030;2024-02-15T09:40:58;101166.31;;;10.49;77.98
57904;BME280;43720;47.462;19.030;2024-02-15T09:44:00;101162.78;;;10.49;75.92
57904;BME280;43720;47.462;19.030;2024-02-15T09:47:06;101169.72;;;10.47;76.95
57904;BME280;43720;47.462;19.030;2024-02-15T09:50:13;101157.66;;;10.52;76.79
57904;BME280;43720;47.462;19.030;2024-02-15T09:53:20;101163.28;;;10.67;76.26
57904;BME280;43720;47.462;19.030;2024-02-15T09:56:24;101167.00;;;10.75;75.63
57904;BME280;43720;47.462;19.030;2024-02-15T09:59:27;101164.16;;;10.66;73.49
57904;BME280;43720;47.462;19.030;2024-02-15T10:02:29;101165.06;;;10.68;73.19
57904;BME280;43720;47.462;19.030;2024-02-15T10:05:33;101166.88;;;10.71;73.28
57904;BME280;43720;47.462;19.030;2024-02-15T10:08:37;101158.69;;;10.92;73.91
57904;BME280;43720;47.462;19.030;2024-02-15T10:11:53;101156.13;;;10.93;72.33
57904;BME280;43720;47.462;19.030;2024-02-15T10:14:57;101149.16;;;10.61;72.55
57904;BME280;43720;47.462;19.030;2024-02-15T10:18:02;101164.75;;;10.56;73.03
57904;BME280;43720;47.462;19.030;2024-02-15T10:21:07;101156.09;;;10.92;71.48
57904;BME280;43720;47.462;19.030;2024-02-15T10:24:09;101151.16;;;10.69;71.85
57904;BME280;43720;47.462;19.030;2024-02-15T10:27:12;101152.84;;;11.00;71.24
57904;BME280;43720;47.462;19.030;2024-02-15T10:30:16;101154.03;;;11.15;70.12
57904;BME280;43720;47.462;19.030;2024-02-15T10:33:28;101151.25;;;11.07;70.13
57904;BME280;43720;47.462;19.030;2024-02-15T10:36:35;101160.66;;;11.35;70.02
57904;BME280;43720;47.462;19.030;2024-02-15T10:39:37;101157.00;;;11.29;68.90
57904;BME280;43720;47.462;19.030;2024-02-15T10:42:40;101155.72;;;11.11;68.64
57904;BME280;43720;47.462;19.030;2024-02-15T10:45:48;101146.16;;;11.13;68.61
57904;BME280;43720;47.462;19.030;2024-02-15T10:48:52;101147.88;;;11.49;67.17
57904;BME280;43720;47.462;19.030;2024-02-15T10:51:58;101146.41;;;11.60;66.13
57904;BME280;43720;47.462;19.030;2024-02-15T10:55:04;101146.22;;;11.52;66.82
57904;BME280;43720;47.462;19.030;2024-02-15T10:58:12;101143.94;;;11.68;66.88
57904;BME280;43720;47.462;19.030;2024-02-15T11:01:17;101147.75;;;11.82;67.00
57904;BME280;43720;47.462;19.030;2024-02-15T11:04:20;101149.69;;;11.89;67.18
57904;BME280;43720;47.462;19.030;2024-02-15T11:07:25;101137.03;;;11.70;64.75
57904;BME280;43720;47.462;19.030;2024-02-15T11:10:34;101149.44;;;11.41;65.09
57904;BME280;43720;47.462;19.030;2024-02-15T11:13:38;101142.19;;;11.67;65.51
57904;BME280;43720;47.462;19.030;2024-02-15T11:16:44;101142.78;;;11.93;65.39
57904;BME280;43720;47.462;19.030;2024-02-15T11:19:48;101141.38;;;12.09;64.72
57904;BME280;43720;47.462;19.030;2024-02-15T11:22:57;101131.63;;;12.03;63.65
57904;BME280;43720;47.462;19.030;2024-02-15T11:26:04;101138.84;;;12.13;64.83
57904;BME280;43720;47.462;19.030;2024-02-15T11:32:52;101134.94;;;11.94;65.55
57904;BME280;43720;47.462;19.030;2024-02-15T11:36:08;101135.97;;;12.46;67.91
57904;BME280;43720;47.462;19.030;2024-02-15T11:39:41;101132.06;;;12.71;66.96
57904;BME280;43720;47.462;19.030;2024-02-15T11:42:45;101129.47;;;12.71;63.14
57904;BME280;43720;47.462;19.030;2024-02-15T11:45:58;101126.28;;;12.91;65.59
57904;BME280;43720;47.462;19.030;2024-02-15T11:49:03;101126.75;;;12.67;63.92
57904;BME280;43720;47.462;19.030;2024-02-15T11:52:10;101119.94;;;12.30;65.35
57904;BME280;43720;47.462;19.030;2024-02-15T11:55:14;101117.00;;;12.14;65.85
57904;BME280;43720;47.462;19.030;2024-02-15T11:58:21;101117.69;;;12.04;65.72
57904;BME280;43720;47.462;19.030;2024-02-15T12:01:31;101118.87;;;12.20;66.75
57904;BME280;43720;47.462;19.030;2024-02-15T12:04:53;101112.72;;;12.19;66.74
57904;BME280;43720;47.462;19.030;2024-02-15T12:08:15;101110.97;;;12.65;64.46
57904;BME280;43720;47.462;19.030;2024-02-15T12:11:43;101110.00;;;12.59;62.09
57904;BME280;43720;47.462;19.030;2024-02-15T12:15:05;101112.03;;;12.77;62.63
57904;BME280;43720;47.462;19.030;2024-02-15T12:18:28;101104.34;;;12.86;60.39
57904;BME280;43720;47.462;19.030;2024-02-15T12:21:50;101101.00;;;12.96;64.32
57904;BME280;43720;47.462;19.030;2024-02-15T12:25:03;101094.84;;;12.94;62.00
57904;BME280;43720;47.462;19.030;2024-02-15T12:28:23;101091.31;;;12.92;63.55
57904;BME280;43720;47.462;19.030;2024-02-15T12:31:25;101085.81;;;12.77;62.80
57904;BME280;43720;47.462;19.030;2024-02-15T12:34:29;101081.84;;;12.50;63.63
57904;BME280;43720;47.462;19.030;2024-02-15T12:37:33;101087.06;;;12.48;62.43
57904;BME280;43720;47.462;19.030;2024-02-15T12:40:37;101081.28;;;12.68;63.80
57904;BME280;43720;47.462;19.030;2024-02-15T12:43:43;101083.38;;;12.89;63.17
57904;BME280;43720;47.462;19.030;2024-02-15T12:46:45;101079.12;;;12.97;62.89
57904;BME280;43720;47.462;19.030;2024-02-15T12:49:50;101069.12;;;13.25;63.30
57904;BME280;43720;47.462;19.030;2024-02-15T12:52:54;101068.09;;;13.18;59.27
57904;BME280;43720;47.462;19.030;2024-02-15T12:56:06;101062.78;;;13.13;60.15
57904;BME280;43720;47.462;19.030;2024-02-15T12:59:08;101071.25;;;12.94;59.45
57904;BME280;43720;47.462;19.030;2024-02-15T13:02:14;101069.56;;;13.01;59.85
57904;BME280;43720;47.462;19.030;2024-02-15T13:05:27;101070.72;;;13.19;58.87
57904;BME280;43720;47.462;19.030;2024-02-15T13:08:29;101062.84;;;13.19;58.69
57904;BME280;43720;47.462;19.030;2024-02-15T13:11:33;101062.03;;;13.20;59.51
57904;BME280;43720;47.462;19.030;2024-02-15T13:14:36;101065.69;;;13.29;57.82
57904;BME280;43720;47.462;19.030;2024-02-15T13:17:38;101062.50;;;12.93;58.17
57904;BME280;43720;47.462;19.030;2024-02-15T13:20:41;101065.62;;;12.71;59.06
57904;BME280;43720;47.462;19.030;2024-02-15T13:23:44;101059.50;;;12.70;59.99
57904;BME280;43720;47.462;19.030;2024-02-15T13:26:46;101060.37;;;12.71;60.02
57904;BME280;43720;47.462;19.030;2024-02-15T13:29:49;101062.94;;;12.69;59.61
57904;BME280;43720;47.462;19.030;2024-02-15T13:32:53;101062.78;;;12.59;60.21
57904;BME280;43720;47.462;19.030;2024-02-15T13:36:00;101064.34;;;12.49;61.43
57904;BME280;43720;47.462;19.030;2024-02-15T13:39:03;101061.44;;;12.34;62.08
57904;BME280;43720;47.462;19.030;2024-02-15T13:42:06;101052.72;;;12.35;61.25
57904;BME280;43720;47.462;19.030;2024-02-15T13:45:09;101052.09;;;12.48;62.47
57904;BME280;43720;47.462;19.030;2024-02-15T13:48:13;101061.53;;;12.38;64.79
57904;BME280;43720;47.462;19.030;2024-02-15T13:51:17;101052.56;;;12.76;64.50
57904;BME280;43720;47.462;19.030;2024-02-15T13:54:21;101049.75;;;12.63;62.80
57904;BME280;43720;47.462;19.030;2024-02-15T13:57:25;101040.31;;;12.75;63.34
57904;BME280;43720;47.462;19.030;2024-02-15T14:00:28;101041.38;;;12.87;61.77
57904;BME280;43720;47.462;19.030;2024-02-15T14:03:37;101046.31;;;12.69;61.88
57904;BME280;43720;47.462;19.030;2024-02-15T14:06:39;101042.22;;;12.32;63.38
57904;BME280;43720;47.462;19.030;2024-02-15T14:09:46;101043.47;;;12.05;63.29
57904;BME280;43720;47.462;19.030;2024-02-15T14:13:04;101051.19;;;11.99;63.90
57904;BME280;43720;47.462;19.030;2024-02-15T14:16:13;101049.25;;;11.89;64.01
57904;BME280;43720;47.462;19.030;2024-02-15T14:19:18;101038.53;;;11.80;65.30
57904;BME280;43720;47.462;19.030;2024-02-15T14:22:20;101045.28;;;11.68;65.11
57904;BME280;43720;47.462;19.030;2024-02-15T14:25:25;101042.50;;;11.59;66.77
57904;BME280;43720;47.462;19.030;2024-02-15T14:28:28;101036.31;;;11.56;66.98
57904;BME280;43720;47.462;19.030;2024-02-15T14:31:30;101040.66;;;11.55;66.36
57904;BME280;43720;47.462;19.030;2024-02-15T14:34:51;101036.22;;;11.51;66.92
57904;BME280;43720;47.462;19.030;2024-02-15T14:37:54;101044.78;;;11.44;66.95
57904;BME280;43720;47.462;19.030;2024-02-15T14:40:58;101044.97;;;11.53;67.58
57904;BME280;43720;47.462;19.030;2024-02-15T14:44:03;101037.25;;;11.59;68.05
57904;BME280;43720;47.462;19.030;2024-02-15T14:47:05;101048.62;;;11.61;65.78
57904;BME280;43720;47.462;19.030;2024-02-15T14:50:08;101047.56;;;11.51;67.66
57904;BME280;43720;47.462;19.030;2024-02-15T14:53:12;101054.47;;;11.48;68.45
57904;BME280;43720;47.462;19.030;2024-02-15T14:56:15;101050.94;;;11.46;68.73
57904;BME280;43720;47.462;19.030;2024-02-15T14:59:18;101050.75;;;11.37;68.93
57904;BME280;43720;47.462;19.030;2024-02-15T15:02:20;101046.28;;;11.33;70.19
57904;BME280;43720;47.462;19.030;2024-02-15T15:05:23;101042.88;;;11.37;68.58
57904;BME280;43720;47.462;19.030;2024-02-15T15:08:43;101048.13;;;11.38;69.21
57904;BME280;43720;47.462;19.030;2024-02-15T15:12:05;101049.63;;;11.25;70.23
57904;BME280;43720;47.462;19.030;2024-02-15T15:15:26;101042.44;;;11.17;70.92
57904;BME280;43720;47.462;19.030;2024-02-15T15:18:29;101043.84;;;11.01;72.32
57904;BME280;43720;47.462;19.030;2024-02-15T15:21:33;101048.25;;;11.04;74.03
57904;BME280;43720;47.462;19.030;2024-02-15T15:24:36;101050.94;;;11.07;72.26
57904;BME280;43720;47.462;19.030;2024-02-15T15:27:38;101046.63;;;11.09;71.31
57904;BME280;43720;47.462;19.030;2024-02-15T15:30:41;101038.69;;;11.06;72.33
57904;BME280;43720;47.462;19.030;2024-02-15T15:33:50;101043.13;;;11.08;72.35
57904;BME280;43720;47.462;19.030;2024-02-15T15:36:53;101041.25;;;11.42;71.30
57904;BME280;43720;47.462;19.030;2024-02-15T15:39:56;101047.59;;;11.53;70.08
57904;BME280;43720;47.462;19.030;2024-02-15T15:42:59;101039.31;;;11.33;71.75
57904;BME280;43720;47.462;19.030;2024-02-15T15:46:01;101048.38;;;11.08;72.39
57904;BME280;43720;47.462;19.030;2024-02-15T15:49:04;101036.84;;;11.00;75.98
57904;BME280;43720;47.462;19.030;2024-02-15T15:52:07;101041.06;;;10.95;74.79
57904;BME280;43720;47.462;19.030;2024-02-15T15:55:10;101044.28;;;10.83;74.51
57904;BME280;43720;47.462;19.030;2024-02-15T15:58:15;101046.81;;;10.80;75.02
57904;BME280;43720;47.462;19.030;2024-02-15T16:01:18;101054.44;;;10.71;77.47
57904;BME280;43720;47.462;19.030;2024-02-15T16:04:21;101051.97;;;10.77;78.58
57904;BME280;43720;47.462;19.030;2024-02-15T16:07:24;101056.16;;;10.70;78.40
57904;BME280;43720;47.462;19.030;2024-02-15T16:10:27;101051.06;;;10.75;79.90
57904;BME280;43720;47.462;19.030;2024-02-15T16:13:30;101049.59;;;10.88;78.55
57904;BME280;43720;47.462;19.030;2024-02-15T16:16:33;101050.47;;;10.87;78.18
57904;BME280;43720;47.462;19.030;2024-02-15T16:19:35;101047.66;;;10.79;78.78
57904;BME280;43720;47.462;19.030;2024-02-15T16:22:38;101044.44;;;10.89;79.59
57904;BME280;43720;47.462;19.030;2024-02-15T16:25:40;101038.84;;;11.12;77.44
57904;BME280;43720;47.462;19.030;2024-02-15T16:28:42;101053.13;;;10.88;77.77
57904;BME280;43720;47.462;19.030;2024-02-15T16:31:49;101048.50;;;10.76;78.45
57904;BME280;43720;47.462;19.030;2024-02-15T16:34:51;101056.84;;;10.62;79.17
57904;BME280;43720;47.462;19.030;2024-02-15T16:37:54;101052.22;;;10.51;79.91
